Tama, Argentina
Current Conditions -  °F | °C
As of 12:00 AM on Tuesday 23 Dec 2014 (Local Time) from SACO Reporting Station
Clear Clear  
Wind Chill: 50°   Ceiling: Unl
Heat Index: 50°   Visibility: 6mi
Dew Point: 43°   Wind: 0mph
Humidity: 76%   Direction: NA
Pressure: 30.36"   Gusts: NA
Location:  30.52°S, 66.53°W
Report Text: SACO 230300Z 00000KT CAVOK 10/06 Q1028
Loading
Personal Weather Stations






























Interactive Weather Map New forecast layout! Learn more

10-Day Weather Forecast

Advertisements
Track Severe Weather on mobile